sensor_id;sensor_type;location;lat;lon;timestamp;pressure;altitude;pressure_sealevel;temperature;humidity
70200;BME280;57587;55.688;37.600;2023-04-01T00:00:59;98090.44;;;4.45;66.34
70200;BME280;57587;55.688;37.600;2023-04-01T00:03:28;98090.81;;;4.42;66.58
70200;BME280;57587;55.688;37.600;2023-04-01T00:05:57;98090.44;;;4.45;66.48
70200;BME280;57587;55.688;37.600;2023-04-01T00:08:26;98093.53;;;4.49;66.39
70200;BME280;57587;55.688;37.600;2023-04-01T00:10:53;98090.38;;;4.53;65.87
70200;BME280;57587;55.688;37.600;2023-04-01T00:13:21;98091.91;;;4.48;66.62
70200;BME280;57587;55.688;37.600;2023-04-01T00:15:48;98086.09;;;4.52;66.60
70200;BME280;57587;55.688;37.600;2023-04-01T00:18:15;98088.25;;;4.49;66.39
70200;BME280;57587;55.688;37.600;2023-04-01T00:20:45;98079.69;;;4.47;66.68
70200;BME280;57587;55.688;37.600;2023-04-01T00:23:13;98083.81;;;4.49;66.11
70200;BME280;57587;55.688;37.600;2023-04-01T00:25:41;98078.50;;;4.49;66.17
70200;BME280;57587;55.688;37.600;2023-04-01T00:28:08;98070.63;;;4.41;65.84
70200;BME280;57587;55.688;37.600;2023-04-01T00:30:36;98081.78;;;4.51;66.35
70200;BME280;57587;55.688;37.600;2023-04-01T00:33:03;98076.47;;;4.51;66.17
70200;BME280;57587;55.688;37.600;2023-04-01T00:35:31;98068.72;;;4.50;66.51
70200;BME280;57587;55.688;37.600;2023-04-01T00:37:59;98077.41;;;4.44;66.05
70200;BME280;57587;55.688;37.600;2023-04-01T00:40:35;98068.63;;;4.43;66.32
70200;BME280;57587;55.688;37.600;2023-04-01T00:43:18;98069.44;;;4.44;66.46
70200;BME280;57587;55.688;37.600;2023-04-01T00:45:48;98074.47;;;4.53;66.15
70200;BME280;57587;55.688;37.600;2023-04-01T00:48:21;98060.94;;;4.48;66.30
70200;BME280;57587;55.688;37.600;2023-04-01T00:50:53;98066.91;;;4.50;65.50
70200;BME280;57587;55.688;37.600;2023-04-01T00:53:22;98068.38;;;4.53;65.67
70200;BME280;57587;55.688;37.600;2023-04-01T00:55:54;98067.41;;;4.46;66.25
70200;BME280;57587;55.688;37.600;2023-04-01T00:58:23;98063.97;;;4.45;66.47
70200;BME280;57587;55.688;37.600;2023-04-01T01:00:52;98064.16;;;4.44;66.48
70200;BME280;57587;55.688;37.600;2023-04-01T01:03:19;98055.38;;;4.43;66.32
70200;BME280;57587;55.688;37.600;2023-04-01T01:09:21;98076.56;;;4.43;66.37
70200;BME280;57587;55.688;37.600;2023-04-01T01:11:54;98067.97;;;4.41;65.98
70200;BME280;57587;55.688;37.600;2023-04-01T01:34:35;98075.19;;;4.32;66.85
70200;BME280;57587;55.688;37.600;2023-04-01T01:37:14;98082.41;;;4.38;66.46
70200;BME280;57587;55.688;37.600;2023-04-01T01:39:45;98075.94;;;4.41;66.16
70200;BME280;57587;55.688;37.600;2023-04-01T01:42:16;98069.97;;;4.39;66.63
70200;BME280;57587;55.688;37.600;2023-04-01T01:44:47;98071.66;;;4.40;67.33
70200;BME280;57587;55.688;37.600;2023-04-01T01:47:16;98076.75;;;4.42;66.78
70200;BME280;57587;55.688;37.600;2023-04-01T01:49:46;98071.75;;;4.47;66.64
70200;BME280;57587;55.688;37.600;2023-04-01T01:52:14;98081.69;;;4.45;66.89
70200;BME280;57587;55.688;37.600;2023-04-01T01:54:57;98075.00;;;4.34;66.50
70200;BME280;57587;55.688;37.600;2023-04-01T01:57:33;98078.75;;;4.39;66.91
70200;BME280;57587;55.688;37.600;2023-04-01T02:00:09;98083.69;;;4.43;67.10
70200;BME280;57587;55.688;37.600;2023-04-01T02:02:45;98082.50;;;4.45;66.78
70200;BME280;57587;55.688;37.600;2023-04-01T02:05:23;98075.84;;;4.49;66.77
70200;BME280;57587;55.688;37.600;2023-04-01T02:08:05;98075.19;;;4.47;66.33
70200;BME280;57587;55.688;37.600;2023-04-01T02:10:37;98081.59;;;4.53;66.29
70200;BME280;57587;55.688;37.600;2023-04-01T02:13:18;98087.72;;;4.53;66.03
70200;BME280;57587;55.688;37.600;2023-04-01T02:15:48;98087.44;;;4.48;67.14
70200;BME280;57587;55.688;37.600;2023-04-01T02:18:18;98088.38;;;4.55;66.86
70200;BME280;57587;55.688;37.600;2023-04-01T02:20:48;98081.84;;;4.58;66.61
70200;BME280;57587;55.688;37.600;2023-04-01T02:23:16;98093.47;;;4.57;66.49
70200;BME280;57587;55.688;37.600;2023-04-01T02:25:43;98090.56;;;4.67;66.29
70200;BME280;57587;55.688;37.600;2023-04-01T02:28:12;98092.59;;;4.65;66.39
70200;BME280;57587;55.688;37.600;2023-04-01T02:30:43;98090.56;;;4.67;65.77
70200;BME280;57587;55.688;37.600;2023-04-01T02:33:12;98096.22;;;4.63;66.20
70200;BME280;57587;55.688;37.600;2023-04-01T02:35:39;98092.94;;;4.61;65.70
70200;BME280;57587;55.688;37.600;2023-04-01T02:38:06;98096.84;;;4.51;65.81
70200;BME280;57587;55.688;37.600;2023-04-01T02:40:48;98103.31;;;4.48;66.27
70200;BME280;57587;55.688;37.600;2023-04-01T02:43:16;98093.84;;;4.54;66.32
70200;BME280;57587;55.688;37.600;2023-04-01T02:45:44;98096.94;;;4.57;66.08
70200;BME280;57587;55.688;37.600;2023-04-01T02:48:11;98099.31;;;4.52;65.70
70200;BME280;57587;55.688;37.600;2023-04-01T02:50:40;98101.78;;;4.54;65.72
70200;BME280;57587;55.688;37.600;2023-04-01T02:53:07;98094.03;;;4.52;66.29
70200;BME280;57587;55.688;37.600;2023-04-01T02:55:34;98102.59;;;4.54;66.18
70200;BME280;57587;55.688;37.600;2023-04-01T02:58:02;98101.50;;;4.34;66.37
70200;BME280;57587;55.688;37.600;2023-04-01T03:00:30;98094.63;;;4.39;66.03
70200;BME280;57587;55.688;37.600;2023-04-01T03:02:57;98095.13;;;4.43;66.39
70200;BME280;57587;55.688;37.600;2023-04-01T03:05:24;98102.50;;;4.48;66.77
70200;BME280;57587;55.688;37.600;2023-04-01T03:07:52;98097.56;;;4.45;67.11
70200;BME280;57587;55.688;37.600;2023-04-01T03:10:19;98101.59;;;4.41;66.60
70200;BME280;57587;55.688;37.600;2023-04-01T03:12:46;98103.78;;;4.37;66.64
70200;BME280;57587;55.688;37.600;2023-04-01T03:15:14;98110.66;;;4.46;65.65
70200;BME280;57587;55.688;37.600;2023-04-01T03:17:41;98112.81;;;4.43;66.68
70200;BME280;57587;55.688;37.600;2023-04-01T03:20:10;98112.56;;;4.52;66.04
70200;BME280;57587;55.688;37.600;2023-04-01T03:22:38;98118.22;;;4.49;66.28
70200;BME280;57587;55.688;37.600;2023-04-01T03:25:10;98118.59;;;4.46;66.48
70200;BME280;57587;55.688;37.600;2023-04-01T03:27:39;98121.69;;;4.50;66.40
70200;BME280;57587;55.688;37.600;2023-04-01T03:30:07;98120.78;;;4.57;66.76
70200;BME280;57587;55.688;37.600;2023-04-01T03:32:43;98120.41;;;4.60;66.63
70200;BME280;57587;55.688;37.600;2023-04-01T03:35:10;98121.16;;;4.69;66.18
70200;BME280;57587;55.688;37.600;2023-04-01T03:37:37;98122.34;;;4.67;65.83
70200;BME280;57587;55.688;37.600;2023-04-01T03:40:05;98125.00;;;4.67;65.66
70200;BME280;57587;55.688;37.600;2023-04-01T03:42:33;98126.00;;;4.66;65.81
70200;BME280;57587;55.688;37.600;2023-04-01T03:45:01;98125.72;;;4.60;66.32
70200;BME280;57587;55.688;37.600;2023-04-01T03:47:29;98131.22;;;4.59;65.81
70200;BME280;57587;55.688;37.600;2023-04-01T03:49:56;98132.03;;;4.59;66.86
70200;BME280;57587;55.688;37.600;2023-04-01T03:52:25;98146.53;;;4.63;66.11
70200;BME280;57587;55.688;37.600;2023-04-01T03:54:52;98146.63;;;4.70;65.92
70200;BME280;57587;55.688;37.600;2023-04-01T03:57:19;98148.13;;;4.73;66.55
70200;BME280;57587;55.688;37.600;2023-04-01T03:59:47;98152.59;;;4.72;66.37
70200;BME280;57587;55.688;37.600;2023-04-01T04:02:14;98155.59;;;4.69;66.52
70200;BME280;57587;55.688;37.600;2023-04-01T04:04:41;98159.63;;;4.80;65.52
70200;BME280;57587;55.688;37.600;2023-04-01T04:07:09;98156.81;;;4.81;65.03
70200;BME280;57587;55.688;37.600;2023-04-01T04:09:56;98157.59;;;4.67;65.54
70200;BME280;57587;55.688;37.600;2023-04-01T04:12:23;98167.13;;;4.61;65.84
70200;BME280;57587;55.688;37.600;2023-04-01T04:14:50;98167.38;;;4.67;66.42
70200;BME280;57587;55.688;37.600;2023-04-01T04:17:17;98163.47;;;4.62;66.00
70200;BME280;57587;55.688;37.600;2023-04-01T04:19:45;98171.03;;;4.66;66.22
70200;BME280;57587;55.688;37.600;2023-04-01T04:22:15;98172.97;;;4.72;65.78
70200;BME280;57587;55.688;37.600;2023-04-01T04:24:42;98177.91;;;4.75;65.65
70200;BME280;57587;55.688;37.600;2023-04-01T04:27:12;98176.53;;;4.79;65.67
70200;BME280;57587;55.688;37.600;2023-04-01T04:29:59;98181.03;;;4.78;65.96
70200;BME280;57587;55.688;37.600;2023-04-01T04:32:26;98176.16;;;4.67;66.04
70200;BME280;57587;55.688;37.600;2023-04-01T04:34:55;98181.94;;;4.71;66.04
70200;BME280;57587;55.688;37.600;2023-04-01T04:37:22;98174.25;;;4.76;66.78
70200;BME280;57587;55.688;37.600;2023-04-01T04:39:49;98183.75;;;4.85;66.43
70200;BME280;57587;55.688;37.600;2023-04-01T04:42:17;98179.13;;;4.87;66.76
70200;BME280;57587;55.688;37.600;2023-04-01T04:44:44;98184.69;;;4.92;66.37
70200;BME280;57587;55.688;37.600;2023-04-01T04:47:11;98184.97;;;4.97;65.92
70200;BME280;57587;55.688;37.600;2023-04-01T04:49:38;98188.88;;;5.01;66.07
70200;BME280;57587;55.688;37.600;2023-04-01T04:52:08;98192.63;;;5.07;66.27
70200;BME280;57587;55.688;37.600;2023-04-01T04:54:35;98195.88;;;5.17;65.55
70200;BME280;57587;55.688;37.600;2023-04-01T04:57:03;98200.97;;;5.19;65.85
70200;BME280;57587;55.688;37.600;2023-04-01T04:59:36;98196.41;;;5.27;65.33
70200;BME280;57587;55.688;37.600;2023-04-01T05:02:13;98200.53;;;5.30;65.33
70200;BME280;57587;55.688;37.600;2023-04-01T05:04:40;98208.13;;;5.33;65.80
70200;BME280;57587;55.688;37.600;2023-04-01T05:07:09;98206.06;;;5.35;66.56
70200;BME280;57587;55.688;37.600;2023-04-01T05:09:37;98205.19;;;5.43;65.98
70200;BME280;57587;55.688;37.600;2023-04-01T05:12:04;98203.13;;;5.60;65.51
70200;BME280;57587;55.688;37.600;2023-04-01T05:14:55;98214.56;;;5.60;63.61
70200;BME280;57587;55.688;37.600;2023-04-01T05:17:23;98208.00;;;5.56;63.87
70200;BME280;57587;55.688;37.600;2023-04-01T05:19:50;98216.31;;;5.68;64.42
70200;BME280;57587;55.688;37.600;2023-04-01T05:22:17;98217.66;;;5.78;64.71
70200;BME280;57587;55.688;37.600;2023-04-01T05:24:44;98211.66;;;5.91;63.56
70200;BME280;57587;55.688;37.600;2023-04-01T05:27:12;98214.25;;;5.99;63.67
70200;BME280;57587;55.688;37.600;2023-04-01T05:29:40;98213.88;;;6.03;63.89
70200;BME280;57587;55.688;37.600;2023-04-01T05:32:15;98213.44;;;5.99;64.58
70200;BME280;57587;55.688;37.600;2023-04-01T05:34:42;98218.44;;;6.09;63.15
70200;BME280;57587;55.688;37.600;2023-04-01T05:37:09;98222.16;;;6.14;63.36
70200;BME280;57587;55.688;37.600;2023-04-01T05:39:37;98220.59;;;6.20;63.06
70200;BME280;57587;55.688;37.600;2023-04-01T05:42:06;98219.84;;;6.26;62.75
70200;BME280;57587;55.688;37.600;2023-04-01T05:44:34;98221.47;;;6.27;62.15
70200;BME280;57587;55.688;37.600;2023-04-01T05:47:03;98224.03;;;6.35;63.00
70200;BME280;57587;55.688;37.600;2023-04-01T05:49:31;98226.53;;;6.43;63.04
70200;BME280;57587;55.688;37.600;2023-04-01T05:51:58;98227.13;;;6.60;61.96
70200;BME280;57587;55.688;37.600;2023-04-01T05:54:26;98224.06;;;6.63;62.24
70200;BME280;57587;55.688;37.600;2023-04-01T05:56:54;98234.94;;;6.68;61.16
70200;BME280;57587;55.688;37.600;2023-04-01T05:59:21;98242.34;;;6.73;62.26
70200;BME280;57587;55.688;37.600;2023-04-01T06:01:49;98245.25;;;6.78;62.18
70200;BME280;57587;55.688;37.600;2023-04-01T06:04:19;98245.09;;;6.86;62.48
70200;BME280;57587;55.688;37.600;2023-04-01T06:06:46;98242.53;;;7.00;60.92
70200;BME280;57587;55.688;37.600;2023-04-01T06:09:24;98243.25;;;7.15;61.03
70200;BME280;57587;55.688;37.600;2023-04-01T06:21:07;98242.25;;;7.92;58.88
70200;BME280;57587;55.688;37.600;2023-04-01T06:29:44;98247.25;;;8.08;58.16
70200;BME280;57587;55.688;37.600;2023-04-01T06:32:40;98249.25;;;8.00;58.77
70200;BME280;57587;55.688;37.600;2023-04-01T06:46:58;98259.41;;;7.83;58.30
70200;BME280;57587;55.688;37.600;2023-04-01T06:50:02;98264.25;;;7.66;57.48
70200;BME280;57587;55.688;37.600;2023-04-01T06:53:09;98268.91;;;7.57;58.28
70200;BME280;57587;55.688;37.600;2023-04-01T06:56:08;98276.25;;;7.55;57.67
70200;BME280;57587;55.688;37.600;2023-04-01T06:58:59;98275.28;;;7.56;58.36
70200;BME280;57587;55.688;37.600;2023-04-01T07:01:41;98279.00;;;7.62;58.35
70200;BME280;57587;55.688;37.600;2023-04-01T07:04:15;98283.13;;;7.71;58.17
70200;BME280;57587;55.688;37.600;2023-04-01T07:06:56;98268.88;;;7.92;57.60
70200;BME280;57587;55.688;37.600;2023-04-01T07:09:30;98276.97;;;8.12;56.20
70200;BME280;57587;55.688;37.600;2023-04-01T07:15:22;98274.03;;;8.68;55.67
70200;BME280;57587;55.688;37.600;2023-04-01T07:17:56;98279.81;;;9.05;55.80
70200;BME280;57587;55.688;37.600;2023-04-01T07:22:59;98278.44;;;10.39;51.43
70200;BME280;57587;55.688;37.600;2023-04-01T07:25:52;98277.28;;;11.17;49.84
70200;BME280;57587;55.688;37.600;2023-04-01T07:28:32;98281.69;;;11.73;49.67
70200;BME280;57587;55.688;37.600;2023-04-01T07:34:25;98281.50;;;12.72;45.21
70200;BME280;57587;55.688;37.600;2023-04-01T07:37:06;98285.94;;;13.20;44.37
70200;BME280;57587;55.688;37.600;2023-04-01T07:39:45;98290.38;;;13.37;44.26
70200;BME280;57587;55.688;37.600;2023-04-01T07:45:23;98292.97;;;13.44;43.70
70200;BME280;57587;55.688;37.600;2023-04-01T07:55:14;98297.78;;;13.54;43.71
70200;BME280;57587;55.688;37.600;2023-04-01T07:57:58;98303.94;;;13.78;41.65
70200;BME280;57587;55.688;37.600;2023-04-01T08:09:47;98303.22;;;13.94;42.74
70200;BME280;57587;55.688;37.600;2023-04-01T08:16:42;98299.63;;;14.69;38.52
70200;BME280;57587;55.688;37.600;2023-04-01T08:22:36;98310.19;;;16.55;35.20
70200;BME280;57587;55.688;37.600;2023-04-01T08:25:51;98302.19;;;17.57;33.61
70200;BME280;57587;55.688;37.600;2023-04-01T08:34:19;98310.56;;;22.77;25.72
70200;BME280;57587;55.688;37.600;2023-04-01T08:37:14;98315.06;;;22.87;25.64
70200;BME280;57587;55.688;37.600;2023-04-01T08:39:57;98311.91;;;21.60;26.58
70200;BME280;57587;55.688;37.600;2023-04-01T08:54:22;98328.13;;;24.63;21.83
70200;BME280;57587;55.688;37.600;2023-04-01T09:00:36;98327.91;;;23.90;22.20
70200;BME280;57587;55.688;37.600;2023-04-01T09:03:26;98324.34;;;23.57;21.62
70200;BME280;57587;55.688;37.600;2023-04-01T09:39:37;98351.22;;;24.43;19.92
70200;BME280;57587;55.688;37.600;2023-04-01T10:16:27;98380.25;;;16.89;28.84
70200;BME280;57587;55.688;37.600;2023-04-01T10:41:05;98386.06;;;17.62;29.39
70200;BME280;57587;55.688;37.600;2023-04-01T10:56:27;98405.56;;;16.60;31.00
70200;BME280;57587;55.688;37.600;2023-04-01T11:21:50;98414.69;;;13.45;35.39
70200;BME280;57587;55.688;37.600;2023-04-01T11:44:32;98424.34;;;12.37;38.40
70200;BME280;57587;55.688;37.600;2023-04-01T12:07:10;98422.25;;;12.20;37.45
70200;BME280;57587;55.688;37.600;2023-04-01T12:18:40;98440.69;;;12.10;37.82
70200;BME280;57587;55.688;37.600;2023-04-01T12:21:29;98444.66;;;12.26;37.89
70200;BME280;57587;55.688;37.600;2023-04-01T12:43:04;98440.94;;;11.84;36.60
70200;BME280;57587;55.688;37.600;2023-04-01T12:51:19;98436.50;;;11.71;37.46
70200;BME280;57587;55.688;37.600;2023-04-01T13:27:37;98471.53;;;10.54;42.62
70200;BME280;57587;55.688;37.600;2023-04-01T13:30:26;98474.84;;;10.43;43.56
70200;BME280;57587;55.688;37.600;2023-04-01T13:44:26;98494.59;;;9.49;46.13
70200;BME280;57587;55.688;37.600;2023-04-01T13:52:58;98523.88;;;9.22;46.59
70200;BME280;57587;55.688;37.600;2023-04-01T14:01:58;98509.28;;;9.05;46.33
70200;BME280;57587;55.688;37.600;2023-04-01T14:10:25;98521.19;;;9.16;47.15
70200;BME280;57587;55.688;37.600;2023-04-01T14:13:05;98532.69;;;9.16;47.52
70200;BME280;57587;55.688;37.600;2023-04-01T14:21:35;98536.91;;;8.91;49.79
70200;BME280;57587;55.688;37.600;2023-04-01T14:24:51;98525.28;;;9.05;49.85
70200;BME280;57587;55.688;37.600;2023-04-01T14:30:35;98531.13;;;9.35;49.79
70200;BME280;57587;55.688;37.600;2023-04-01T14:47:20;98542.38;;;9.17;52.32
70200;BME280;57587;55.688;37.600;2023-04-01T14:50:21;98541.72;;;9.15;52.59
70200;BME280;57587;55.688;37.600;2023-04-01T14:55:49;98550.00;;;9.34;52.38
70200;BME280;57587;55.688;37.600;2023-04-01T14:58:19;98555.75;;;9.31;52.81
70200;BME280;57587;55.688;37.600;2023-04-01T15:03:38;98567.19;;;9.18;53.88
70200;BME280;57587;55.688;37.600;2023-04-01T15:19:49;98577.78;;;8.98;56.00
70200;BME280;57587;55.688;37.600;2023-04-01T15:27:40;98581.00;;;8.87;56.89
70200;BME280;57587;55.688;37.600;2023-04-01T15:44:03;98604.38;;;8.85;57.41
70200;BME280;57587;55.688;37.600;2023-04-01T15:52:16;98617.78;;;8.98;57.60
70200;BME280;57587;55.688;37.600;2023-04-01T16:00:30;98615.84;;;8.78;57.62
70200;BME280;57587;55.688;37.600;2023-04-01T16:03:24;98626.13;;;8.82;57.59
70200;BME280;57587;55.688;37.600;2023-04-01T16:09:06;98630.72;;;8.66;58.26
70200;BME280;57587;55.688;37.600;2023-04-01T16:11:56;98634.56;;;8.36;59.75
70200;BME280;57587;55.688;37.600;2023-04-01T16:20:18;98635.19;;;8.59;60.82
70200;BME280;57587;55.688;37.600;2023-04-01T16:23:00;98647.28;;;8.55;60.40
70200;BME280;57587;55.688;37.600;2023-04-01T16:25:52;98653.75;;;8.46;60.79
70200;BME280;57587;55.688;37.600;2023-04-01T16:28:37;98653.84;;;8.38;61.28
70200;BME280;57587;55.688;37.600;2023-04-01T16:34:14;98657.03;;;8.48;61.83
70200;BME280;57587;55.688;37.600;2023-04-01T16:36:58;98661.50;;;8.41;61.92
70200;BME280;57587;55.688;37.600;2023-04-01T16:39:33;98667.31;;;8.29;62.77
70200;BME280;57587;55.688;37.600;2023-04-01T16:44:50;98669.84;;;8.16;63.25
70200;BME280;57587;55.688;37.600;2023-04-01T16:47:27;98669.31;;;8.21;63.41
70200;BME280;57587;55.688;37.600;2023-04-01T16:50:28;98676.81;;;8.17;63.37
70200;BME280;57587;55.688;37.600;2023-04-01T16:58:36;98672.47;;;8.31;63.56
70200;BME280;57587;55.688;37.600;2023-04-01T17:01:09;98677.34;;;8.27;63.46
70200;BME280;57587;55.688;37.600;2023-04-01T17:03:43;98673.88;;;8.27;63.70
70200;BME280;57587;55.688;37.600;2023-04-01T17:11:27;98683.94;;;8.31;63.70
70200;BME280;57587;55.688;37.600;2023-04-01T17:19:55;98696.72;;;8.36;62.59
70200;BME280;57587;55.688;37.600;2023-04-01T17:22:32;98694.03;;;8.36;63.21
70200;BME280;57587;55.688;37.600;2023-04-01T17:30:19;98695.63;;;8.30;63.91
70200;BME280;57587;55.688;37.600;2023-04-01T17:39:07;98696.81;;;8.28;63.61
70200;BME280;57587;55.688;37.600;2023-04-01T17:49:59;98696.50;;;8.16;63.36
70200;BME280;57587;55.688;37.600;2023-04-01T17:52:43;98703.09;;;8.20;63.38
70200;BME280;57587;55.688;37.600;2023-04-01T18:01:15;98712.72;;;8.00;63.86
70200;BME280;57587;55.688;37.600;2023-04-01T18:06:34;98716.19;;;8.15;63.62
70200;BME280;57587;55.688;37.600;2023-04-01T18:09:13;98710.31;;;8.05;64.02
70200;BME280;57587;55.688;37.600;2023-04-01T18:17:25;98718.69;;;8.02;64.10
70200;BME280;57587;55.688;37.600;2023-04-01T18:27:50;98734.28;;;8.05;63.92
70200;BME280;57587;55.688;37.600;2023-04-01T18:30:32;98741.00;;;8.01;64.50
70200;BME280;57587;55.688;37.600;2023-04-01T18:33:16;98734.03;;;8.00;64.25
70200;BME280;57587;55.688;37.600;2023-04-01T18:38:51;98752.31;;;8.03;64.76
70200;BME280;57587;55.688;37.600;2023-04-01T18:41:35;98735.13;;;8.05;64.29
70200;BME280;57587;55.688;37.600;2023-04-01T18:44:26;98755.22;;;8.08;64.26
70200;BME280;57587;55.688;37.600;2023-04-01T18:49:57;98755.06;;;7.95;64.89
70200;BME280;57587;55.688;37.600;2023-04-01T18:52:36;98762.25;;;7.94;64.90
70200;BME280;57587;55.688;37.600;2023-04-01T18:57:46;98766.47;;;7.89;65.63
70200;BME280;57587;55.688;37.600;2023-04-01T19:00:32;98752.72;;;7.85;65.79
70200;BME280;57587;55.688;37.600;2023-04-01T19:05:55;98757.06;;;7.71;66.21
70200;BME280;57587;55.688;37.600;2023-04-01T19:08:35;98764.56;;;7.82;65.62
70200;BME280;57587;55.688;37.600;2023-04-01T19:17:00;98760.13;;;7.90;65.80
70200;BME280;57587;55.688;37.600;2023-04-01T19:19:40;98767.19;;;7.97;65.48
70200;BME280;57587;55.688;37.600;2023-04-01T19:30:54;98778.16;;;7.88;65.76
70200;BME280;57587;55.688;37.600;2023-04-01T19:38:55;98785.69;;;7.84;66.71
70200;BME280;57587;55.688;37.600;2023-04-01T19:46:45;98791.81;;;7.99;65.87
70200;BME280;57587;55.688;37.600;2023-04-01T19:51:46;98787.25;;;7.93;65.97
70200;BME280;57587;55.688;37.600;2023-04-01T19:59:21;98793.53;;;8.07;66.11
70200;BME280;57587;55.688;37.600;2023-04-01T20:04:44;98785.09;;;8.18;65.84
70200;BME280;57587;55.688;37.600;2023-04-01T20:12:54;98798.78;;;8.15;65.67
70200;BME280;57587;55.688;37.600;2023-04-01T20:15:36;98811.34;;;8.21;65.69
70200;BME280;57587;55.688;37.600;2023-04-01T20:18:25;98801.59;;;8.28;65.74
70200;BME280;57587;55.688;37.600;2023-04-01T20:21:03;98799.19;;;8.34;65.76
70200;BME280;57587;55.688;37.600;2023-04-01T20:23:43;98808.00;;;8.34;65.20
70200;BME280;57587;55.688;37.600;2023-04-01T20:26:12;98798.66;;;8.38;65.53
70200;BME280;57587;55.688;37.600;2023-04-01T20:31:27;98805.34;;;8.34;65.60
70200;BME280;57587;55.688;37.600;2023-04-01T20:40:44;98803.34;;;8.21;66.09
70200;BME280;57587;55.688;37.600;2023-04-01T20:49:33;98800.66;;;8.36;65.66
70200;BME280;57587;55.688;37.600;2023-04-01T20:51:39;98808.56;;;8.29;66.20
70200;BME280;57587;55.688;37.600;2023-04-01T20:59:44;98811.06;;;8.31;66.42
70200;BME280;57587;55.688;37.600;2023-04-01T21:14:34;98811.72;;;8.18;66.16
70200;BME280;57587;55.688;37.600;2023-04-01T21:25:53;98817.94;;;8.25;66.03
70200;BME280;57587;55.688;37.600;2023-04-01T21:28:41;98822.91;;;8.28;66.18
70200;BME280;57587;55.688;37.600;2023-04-01T21:31:59;98824.19;;;8.32;66.43
70200;BME280;57587;55.688;37.600;2023-04-01T21:43:05;98829.59;;;8.39;66.27
70200;BME280;57587;55.688;37.600;2023-04-01T22:05:07;98840.66;;;8.36;66.62
70200;BME280;57587;55.688;37.600;2023-04-01T22:15:59;98838.53;;;8.31;67.43
70200;BME280;57587;55.688;37.600;2023-04-01T22:18:31;98842.47;;;8.36;67.49
70200;BME280;57587;55.688;37.600;2023-04-01T22:32:11;98850.75;;;8.41;67.29
70200;BME280;57587;55.688;37.600;2023-04-01T22:34:54;98848.53;;;8.44;67.48
70200;BME280;57587;55.688;37.600;2023-04-01T22:48:32;98853.13;;;8.50;67.91
70200;BME280;57587;55.688;37.600;2023-04-01T22:51:44;98857.63;;;8.50;68.62
70200;BME280;57587;55.688;37.600;2023-04-01T22:54:24;98859.66;;;8.48;68.60
70200;BME280;57587;55.688;37.600;2023-04-01T22:57:07;98857.19;;;8.46;68.81
70200;BME280;57587;55.688;37.600;2023-04-01T22:59:50;98858.00;;;8.47;69.38
70200;BME280;57587;55.688;37.600;2023-04-01T23:05:18;98857.19;;;8.46;69.72
70200;BME280;57587;55.688;37.600;2023-04-01T23:10:46;98859.22;;;8.44;69.39
70200;BME280;57587;55.688;37.600;2023-04-01T23:13:19;98849.00;;;8.48;69.97
70200;BME280;57587;55.688;37.600;2023-04-01T23:15:51;98849.44;;;8.51;69.36
70200;BME280;57587;55.688;37.600;2023-04-01T23:21:16;98853.94;;;8.51;69.68
70200;BME280;57587;55.688;37.600;2023-04-01T23:24:43;98860.47;;;8.48;70.72
70200;BME280;57587;55.688;37.600;2023-04-01T23:27:08;98854.97;;;8.50;70.05
70200;BME280;57587;55.688;37.600;2023-04-01T23:29:37;98860.94;;;8.52;70.39
70200;BME280;57587;55.688;37.600;2023-04-01T23:34:47;98859.72;;;8.54;70.44
70200;BME280;57587;55.688;37.600;2023-04-01T23:37:16;98862.88;;;8.58;69.89
70200;BME280;57587;55.688;37.600;2023-04-01T23:39:50;98870.50;;;8.61;70.06
70200;BME280;57587;55.688;37.600;2023-04-01T23:45:19;98864.56;;;8.66;70.21
70200;BME280;57587;55.688;37.600;2023-04-01T23:47:48;98868.44;;;8.63;69.74
70200;BME280;57587;55.688;37.600;2023-04-01T23:50:25;98866.41;;;8.65;69.46
70200;BME280;57587;55.688;37.600;2023-04-01T23:53:00;98865.91;;;8.55;70.11
70200;BME280;57587;55.688;37.600;2023-04-01T23:55:33;98866.72;;;8.56;70.00
70200;BME280;57587;55.688;37.600;2023-04-01T23:58:26;98866.97;;;8.61;70.22
